Time;durP1;ratioP1;P1;durP2;ratioP2;P2;SDS_P1;SDS_P2;PMS_P1;PMS_P2;Temp;Humidity;BMP_temperature;BMP_pressure;BME280_temperature;BME280_humidity;BME280_pressure;Samples;Min_cycle;Max_cycle;Signal;HPM_P1;HPM_P2
2022/06/23 00:00:42;;;;;;;12.43;6.65;;;14.20;99.90;;;;;;6250386;22;20019;-91
2022/06/23 00:03:44;;;;;;;14.82;6.20;;;13.50;99.90;;;;;;6250587;22;20072;-91
2022/06/23 00:07:03;;;;;;;11.85;6.45;;;13.40;99.90;;;;;;6280059;22;20016;-91
2022/06/23 00:09:44;;;;;;;10.98;6.07;;;13.70;99.90;;;;;;6252123;22;20016;-91
2022/06/23 00:16:00;;;;;;;12.05;6.00;;;13.60;99.90;;;;;;6279412;22;20444;-92
2022/06/23 00:18:53;;;;;;;12.63;6.00;;;13.30;99.90;;;;;;6250482;22;20026;-91
2022/06/23 00:21:46;;;;;;;12.32;5.88;;;13.60;99.90;;;;;;6256815;22;20012;-92
2022/06/23 00:24:31;;;;;;;13.05;6.05;;;13.50;99.90;;;;;;6256656;22;20043;-92
2022/06/23 00:27:03;;;;;;;12.93;6.30;;;14.00;99.90;;;;;;6250455;22;20356;-91
2022/06/23 00:29:52;;;;;;;14.45;6.00;;;13.50;99.90;;;;;;6257998;22;20118;-91
2022/06/23 00:32:29;;;;;;;12.13;6.28;;;13.40;99.90;;;;;;6252989;22;20020;-92
2022/06/23 00:35:16;;;;;;;12.82;6.82;;;13.50;99.90;;;;;;6250148;22;20015;-91
2022/06/23 00:38:07;;;;;;;13.77;6.60;;;14.50;99.90;;;;;;6277208;22;20022;-94
2022/06/23 00:40:36;;;;;;;12.68;5.93;;;13.40;99.90;;;;;;6249583;22;20352;-91
2022/06/23 00:43:46;;;;;;;13.93;6.40;;;14.20;99.90;;;;;;6249622;22;20019;-92
2022/06/23 00:46:48;;;;;;;12.90;6.53;;;13.40;99.90;;;;;;6198033;22;20019;-92
2022/06/23 00:49:47;;;;;;;12.93;6.63;;;13.20;99.90;;;;;;6278567;22;20038;-92
2022/06/23 00:52:40;;;;;;;12.52;6.60;;;13.40;99.90;;;;;;6277972;22;20051;-93
2022/06/23 00:55:50;;;;;;;15.27;6.70;;;13.40;99.90;;;;;;6249967;22;20046;-92
2022/06/23 01:13:38;;;;;;;13.90;6.68;;;13.20;99.90;;;;;;6281280;22;20100;-93
2022/06/23 01:16:17;;;;;;;13.23;7.30;;;13.20;99.90;;;;;;6281989;22;20016;-92
2022/06/23 01:27:10;;;;;;;14.88;7.75;;;13.10;99.90;;;;;;6037880;23;20047;-92
2022/06/23 01:29:41;;;;;;;12.82;7.07;;;12.70;99.90;;;;;;6047400;23;20023;-92
2022/06/23 01:32:36;;;;;;;15.18;7.65;;;13.70;99.90;;;;;;6124006;23;20026;-93
2022/06/23 01:46:37;;;;;;;14.40;7.88;;;14.00;99.90;;;;;;6276051;22;20024;-92
2022/06/23 01:49:49;;;;;;;15.70;7.53;;;13.00;99.90;;;;;;6249239;22;20019;-92
2022/06/23 01:52:21;;;;;;;14.75;7.32;;;12.50;99.90;;;;;;6247813;22;20066;-94
2022/06/23 01:58:47;;;;;;;14.07;8.13;;;12.80;99.90;;;;;;6276605;22;20020;-93
2022/06/23 02:01:40;;;;;;;15.90;8.35;;;13.50;99.90;;;;;;6276926;22;20094;-92
2022/06/23 02:04:32;;;;;;;15.23;8.02;;;12.70;99.90;;;;;;6276364;22;20054;-93
2022/06/23 02:07:21;;;;;;;14.35;8.02;;;12.60;99.90;;;;;;6254663;22;20020;-92
2022/06/23 02:10:31;;;;;;;14.27;7.70;;;12.60;99.90;;;;;;6254600;22;20032;-93
2022/06/23 02:13:38;;;;;;;15.73;7.82;;;12.50;99.90;;;;;;6276096;22;20019;-92
2022/06/23 02:16:37;;;;;;;15.23;8.15;;;12.50;99.90;;;;;;6249371;22;20012;-94
2022/06/23 02:19:56;;;;;;;16.10;8.25;;;12.50;99.90;;;;;;6274704;22;20444;-93
2022/06/23 02:23:36;;;;;;;14.70;8.27;;;12.50;99.90;;;;;;6275926;22;20027;-92
2022/06/23 02:29:57;;;;;;;15.90;9.25;;;12.40;99.90;;;;;;6249731;22;20015;-92
2022/06/23 02:33:07;;;;;;;17.25;8.75;;;12.40;99.90;;;;;;6278069;22;20011;-93
2022/06/23 02:39:53;;;;;;;14.65;7.72;;;12.30;99.90;;;;;;6250148;22;20027;-92
2022/06/23 02:42:57;;;;;;;15.88;8.60;;;12.30;99.90;;;;;;6276101;22;20555;-93
2022/06/23 02:46:12;;;;;;;16.50;8.85;;;11.90;99.90;;;;;;6248832;22;20055;-93
2022/06/23 02:49:16;;;;;;;17.85;8.80;;;12.30;99.90;;;;;;6249247;22;20405;-93
2022/06/23 02:52:21;;;;;;;18.15;8.82;;;12.20;99.90;;;;;;6276056;22;20011;-92
2022/06/23 02:55:40;;;;;;;16.60;8.77;;;12.30;99.90;;;;;;6248275;22;20477;-94
2022/06/23 02:58:51;;;;;;;17.17;9.40;;;12.20;99.90;;;;;;6248673;22;20371;-93
2022/06/23 03:01:41;;;;;;;16.90;8.95;;;12.30;99.90;;;;;;6124110;23;20014;-93
2022/06/23 03:04:33;;;;;;;16.45;8.75;;;12.00;99.90;;;;;;6126278;23;20029;-93
2022/06/23 03:14:55;;;;;;;16.30;9.10;;;12.10;99.90;;;;;;6275433;22;20019;-92
2022/06/23 03:18:13;;;;;;;16.17;8.32;;;12.50;99.90;;;;;;6250265;22;20019;-92
2022/06/23 03:20:59;;;;;;;18.40;8.75;;;12.10;99.90;;;;;;6250838;22;20019;-92
2022/06/23 03:24:22;;;;;;;15.93;8.70;;;12.00;99.90;;;;;;6250926;22;20047;-93
2022/06/23 03:26:50;;;;;;;21.35;9.85;;;11.80;99.90;;;;;;6124510;23;20024;-92
2022/06/23 03:29:41;;;;;;;18.92;9.02;;;11.40;99.90;;;;;;6124232;23;20351;-92
2022/06/23 03:32:51;;;;;;;17.73;8.52;;;12.10;99.90;;;;;;6091911;23;20041;-93
2022/06/23 03:43:04;;;;;;;20.52;9.63;;;12.00;99.90;;;;;;6194317;23;20026;-92
2022/06/23 03:46:02;;;;;;;17.98;8.88;;;12.00;99.90;;;;;;6195115;23;20068;-92
2022/06/23 03:48:52;;;;;;;17.58;8.80;;;12.50;99.90;;;;;;6109079;23;20037;-92
2022/06/23 03:51:50;;;;;;;16.85;9.27;;;12.00;99.90;;;;;;6096668;23;20018;-92
2022/06/23 03:55:03;;;;;;;17.13;9.27;;;12.40;99.90;;;;;;6194321;23;20029;-93
2022/06/23 03:57:53;;;;;;;18.98;8.57;;;12.10;99.90;;;;;;6093857;23;20044;-94
2022/06/23 04:01:01;;;;;;;16.20;8.82;;;13.00;99.90;;;;;;6093543;23;20026;-92
2022/06/23 04:03:57;;;;;;;16.92;9.30;;;12.10;99.90;;;;;;6194338;23;20045;-92
2022/06/23 04:07:08;;;;;;;16.23;8.88;;;12.10;99.90;;;;;;6070312;22;20041;-93
2022/06/23 04:09:40;;;;;;;17.25;8.68;;;12.20;99.90;;;;;;6182706;23;20002;-93
2022/06/23 04:16:09;;;;;;;16.65;9.05;;;12.20;99.90;;;;;;6156709;23;20505;-93
2022/06/23 04:18:47;;;;;;;19.08;9.43;;;12.10;99.90;;;;;;6131833;23;20075;-93
2022/06/23 04:21:34;;;;;;;16.77;9.45;;;13.40;99.90;;;;;;6154585;23;20501;-93
2022/06/23 04:25:00;;;;;;;16.77;9.25;;;12.80;99.90;;;;;;6129344;23;20025;-93
2022/06/23 04:28:04;;;;;;;17.10;9.85;;;12.40;99.90;;;;;;6042323;23;20019;-93
2022/06/23 04:30:56;;;;;;;17.25;8.80;;;13.60;99.90;;;;;;6044031;23;20141;-93
2022/06/23 04:36:54;;;;;;;17.70;9.57;;;12.60;99.90;;;;;;6100440;23;20022;-93
2022/06/23 04:40:10;;;;;;;17.45;8.93;;;12.60;99.90;;;;;;6100991;23;20014;-92
2022/06/23 04:43:04;;;;;;;15.32;8.60;;;12.70;99.90;;;;;;6126768;23;20044;-91
2022/06/23 04:46:25;;;;;;;17.73;9.20;;;12.70;99.90;;;;;;6130355;23;20022;-91
2022/06/23 04:49:13;;;;;;;;;;;;;;;;;;;;;
2022/06/23 04:55:24;;;;;;;18.02;9.82;;;12.80;99.90;;;;;;6096987;23;20033;-93
2022/06/23 04:58:30;;;;;;;16.38;9.13;;;13.00;99.90;;;;;;6124807;23;20018;-92
2022/06/23 05:01:34;;;;;;;17.20;9.75;;;13.10;99.90;;;;;;6110356;23;20057;-93
2022/06/23 05:04:47;;;;;;;16.90;9.57;;;13.20;99.90;;;;;;6194783;23;20514;-93
2022/06/23 05:07:25;;;;;;;17.02;9.60;;;13.00;99.90;;;;;;6154378;23;20023;-93
2022/06/23 05:20:40;;;;;;;16.60;9.68;;;13.90;99.90;;;;;;6207015;22;20045;-93
2022/06/23 05:23:52;;;;;;;15.32;9.13;;;14.00;99.90;;;;;;6124907;23;20014;-93
2022/06/23 05:26:52;;;;;;;16.88;9.48;;;15.20;99.90;;;;;;6120616;22;20022;-92
2022/06/23 05:29:56;;;;;;;17.25;9.23;;;14.30;99.90;;;;;;6256624;22;20042;-93
2022/06/23 05:32:47;;;;;;;15.60;9.10;;;15.20;99.90;;;;;;6279041;22;20073;-93
2022/06/23 05:36:06;;;;;;;19.60;10.00;;;14.60;99.90;;;;;;6250845;22;20018;-93
2022/06/23 05:39:05;;;;;;;17.15;10.35;;;14.60;99.90;;;;;;6125265;23;20026;-93
2022/06/23 05:42:03;;;;;;;15.68;9.90;;;14.80;99.90;;;;;;6125093;23;20085;-93
2022/06/23 05:44:32;;;;;;;16.05;9.95;;;14.90;99.90;;;;;;6125224;23;20522;-93
2022/06/23 05:47:02;;;;;;;20.20;9.63;;;15.00;99.90;;;;;;6102159;23;20089;-93
2022/06/23 05:50:10;;;;;;;16.80;9.52;;;15.10;99.90;;;;;;6126093;23;20025;-94
2022/06/23 05:53:13;;;;;;;17.90;9.52;;;15.30;99.90;;;;;;6095265;23;20522;-93
2022/06/23 05:55:47;;;;;;;14.80;9.18;;;15.30;99.90;;;;;;6150434;22;20020;-92
2022/06/23 05:58:56;;;;;;;15.80;9.23;;;15.30;99.90;;;;;;6251863;22;20463;-93
2022/06/23 06:01:39;;;;;;;16.80;10.07;;;15.60;99.90;;;;;;6278996;22;20030;-93
2022/06/23 06:04:42;;;;;;;18.48;9.85;;;16.50;99.90;;;;;;6278012;22;20012;-93
2022/06/23 06:07:51;;;;;;;17.58;9.52;;;15.80;99.90;;;;;;6251727;22;20038;-92
2022/06/23 06:10:33;;;;;;;16.35;9.27;;;14.90;99.90;;;;;;6277932;22;20019;-94
2022/06/23 06:13:31;;;;;;;16.80;9.25;;;16.40;99.90;;;;;;6247997;22;20516;-94
2022/06/23 06:16:12;;;;;;;15.55;8.70;;;16.20;99.90;;;;;;6218705;23;20099;-86
2022/06/23 06:18:46;;;;;;;17.05;9.57;;;17.40;99.90;;;;;;6218877;23;20023;-92
2022/06/23 06:21:33;;;;;;;14.80;8.82;;;16.90;99.90;;;;;;6219675;23;20102;-89
2022/06/23 06:24:23;;;;;;;16.58;8.32;;;16.70;99.90;;;;;;6246092;23;20027;-85
2022/06/23 06:27:30;;;;;;;15.15;9.48;;;16.80;99.90;;;;;;6211823;23;20061;-90
2022/06/23 06:30:16;;;;;;;15.25;8.35;;;17.70;99.90;;;;;;6187172;23;20357;-90
2022/06/23 06:33:38;;;;;;;13.93;8.30;;;18.00;99.90;;;;;;6151630;23;20018;-92
2022/06/23 06:39:31;;;;;;;14.07;8.15;;;17.50;99.90;;;;;;6274139;22;20024;-87
2022/06/23 06:42:52;;;;;;;13.38;7.50;;;17.20;99.90;;;;;;6239375;22;20023;-84
2022/06/23 06:45:22;;;;;;;14.02;7.57;;;17.30;99.90;;;;;;6276372;22;20011;-82
2022/06/23 06:47:47;;;;;;;13.55;7.90;;;18.00;99.90;;;;;;6248865;22;20444;-82
2022/06/23 06:50:22;;;;;;;14.40;7.47;;;18.10;99.90;;;;;;6277823;22;20061;-85
2022/06/23 06:52:49;;;;;;;12.60;6.95;;;18.50;99.90;;;;;;6277809;22;20057;-85
2022/06/23 06:55:20;;;;;;;14.15;7.80;;;18.50;99.90;;;;;;6277045;22;20081;-85
2022/06/23 06:57:56;;;;;;;13.98;6.95;;;18.60;99.90;;;;;;6249557;22;20008;-85
2022/06/23 07:00:46;;;;;;;13.80;7.20;;;18.90;99.90;;;;;;6250975;22;20344;-85
2022/06/23 07:03:15;;;;;;;12.27;6.80;;;19.00;99.90;;;;;;6277214;22;20474;-85
2022/06/23 07:06:02;;;;;;;14.02;7.00;;;19.20;99.90;;;;;;6250158;22;20325;-85
2022/06/23 07:08:56;;;;;;;10.93;6.47;;;19.40;99.90;;;;;;6252748;22;20012;-86
2022/06/23 07:11:39;;;;;;;12.32;6.38;;;19.50;99.90;;;;;;6255469;22;20352;-87
2022/06/23 07:14:16;;;;;;;12.02;6.32;;;19.80;99.90;;;;;;6277481;22;20022;-87
2022/06/23 07:17:16;;;;;;;12.45;6.13;;;20.00;99.90;;;;;;6277026;22;20043;-87
2022/06/23 07:19:52;;;;;;;10.70;5.85;;;20.20;99.90;;;;;;6277917;22;20011;-88
2022/06/23 07:22:40;;;;;;;10.75;6.18;;;20.50;99.90;;;;;;6277162;22;20090;-88
2022/06/23 07:25:23;;;;;;;13.20;6.60;;;20.60;99.90;;;;;;6276704;22;20015;-89
2022/06/23 07:28:27;;;;;;;10.70;5.75;;;20.80;99.90;;;;;;6277969;22;20053;-88
2022/06/23 07:30:58;;;;;;;11.80;5.97;;;21.00;99.90;;;;;;6270630;22;20024;-88
2022/06/23 07:33:40;;;;;;;11.00;5.93;;;21.20;99.90;;;;;;6225455;22;20016;-87
2022/06/23 07:36:13;;;;;;;10.80;5.70;;;21.30;99.90;;;;;;6248777;22;20018;-92
2022/06/23 07:38:57;;;;;;;11.77;5.50;;;21.80;99.90;;;;;;6276725;22;20383;-88
2022/06/23 07:41:56;;;;;;;10.30;5.28;;;21.50;99.90;;;;;;6277793;22;20023;-85
2022/06/23 07:44:34;;;;;;;15.57;5.30;;;21.70;99.90;;;;;;6275939;22;20058;-83
2022/06/23 07:47:01;;;;;;;9.60;5.00;;;21.90;99.90;;;;;;6277496;22;20042;-87
2022/06/23 07:49:27;;;;;;;11.60;5.30;;;22.00;99.90;;;;;;6249608;22;20466;-88
2022/06/23 07:51:55;;;;;;;10.43;5.40;;;22.20;99.90;;;;;;6275098;22;20041;-87
2022/06/23 07:54:22;;;;;;;10.70;4.93;;;22.40;99.90;;;;;;6277279;22;20047;-86
2022/06/23 07:56:52;;;;;;;9.65;4.82;;;22.50;99.90;;;;;;6275666;22;20026;-87
2022/06/23 07:59:58;;;;;;;10.32;5.10;;;22.70;99.90;;;;;;6249597;22;20023;-92
2022/06/23 08:03:15;;;;;;;9.85;4.65;;;23.00;99.90;;;;;;6248997;22;20440;-91
2022/06/23 08:06:18;;;;;;;11.38;4.90;;;22.80;99.90;;;;;;6276682;22;20019;-89
2022/06/23 08:09:28;;;;;;;9.85;4.40;;;23.10;99.90;;;;;;6257012;22;20015;-95
2022/06/23 08:16:49;;;;;;;9.20;4.20;;;23.40;99.90;;;;;;6100617;23;20471;-93
2022/06/23 08:17:44;;;;;;;9.10;4.45;;;23.60;99.90;;;;;;6232649;22;20026;-94
2022/06/23 08:20:13;;;;;;;10.07;4.32;;;23.90;99.90;;;;;;6252921;22;20019;-93
2022/06/23 08:22:41;;;;;;;8.15;3.95;;;23.90;99.90;;;;;;6254352;22;20011;-94
2022/06/23 08:25:08;;;;;;;10.30;4.45;;;24.10;99.90;;;;;;6251851;22;20440;-94
2022/06/23 08:27:34;;;;;;;10.48;4.45;;;24.10;99.90;;;;;;6279828;22;20023;-93
2022/06/23 08:30:03;;;;;;;10.23;4.28;;;24.30;99.90;;;;;;6291661;22;20012;-93
2022/06/23 08:32:30;;;;;;;10.25;4.15;;;24.50;99.90;;;;;;6254377;22;20011;-92
2022/06/23 08:35:05;;;;;;;8.73;3.80;;;24.60;99.90;;;;;;6280481;22;20026;-93
2022/06/23 08:37:57;;;;;;;10.80;4.60;;;24.70;99.90;;;;;;6280987;22;20016;-93
2022/06/23 08:40:48;;;;;;;8.05;3.65;;;24.90;99.90;;;;;;6279070;22;20061;-92
2022/06/23 08:43:28;;;;;;;8.77;3.80;;;25.10;99.90;;;;;;6251123;22;20031;-93
2022/06/23 08:46:17;;;;;;;8.27;3.92;;;25.20;99.90;;;;;;6251385;22;20101;-94
2022/06/23 08:49:06;;;;;;;9.68;3.88;;;25.40;99.90;;;;;;6258652;22;20075;-93
2022/06/23 08:51:43;;;;;;;8.32;3.63;;;25.50;99.90;;;;;;6262540;22;20023;-93
2022/06/23 08:54:25;;;;;;;9.57;3.83;;;25.70;99.90;;;;;;6251671;22;20012;-93
2022/06/23 08:57:03;;;;;;;7.90;3.60;;;25.80;99.90;;;;;;6251813;22;20023;-93
2022/06/23 09:00:12;;;;;;;8.98;3.40;;;25.90;99.90;;;;;;6277010;22;20435;-92
2022/06/23 09:03:07;;;;;;;8.80;3.80;;;26.00;99.70;;;;;;6250402;22;20019;-94
2022/06/23 09:06:13;;;;;;;9.50;3.70;;;26.10;99.50;;;;;;6250329;22;20024;-94
2022/06/23 09:09:22;;;;;;;10.48;4.03;;;26.30;98.60;;;;;;6250725;22;20026;-93
2022/06/23 09:12:34;;;;;;;9.20;3.72;;;26.30;99.00;;;;;;6249418;22;20098;-93
2022/06/23 09:15:19;;;;;;;9.95;3.80;;;26.40;98.50;;;;;;6251068;22;20043;-92
2022/06/23 09:17:53;;;;;;;9.27;4.07;;;26.60;99.10;;;;;;6257290;22;20050;-92
2022/06/23 09:20:53;;;;;;;10.27;4.00;;;26.80;99.00;;;;;;6263045;22;20020;-92
2022/06/23 09:23:43;;;;;;;10.15;3.75;;;27.00;98.10;;;;;;6285293;22;20015;-94
2022/06/23 09:26:15;;;;;;;8.68;3.65;;;27.10;98.20;;;;;;6280223;22;20016;-95
2022/06/23 09:31:27;;;;;;;8.38;3.40;;;27.40;97.20;;;;;;6279483;22;20503;-94
2022/06/23 09:34:37;;;;;;;8.80;3.80;;;27.40;94.80;;;;;;6255207;22;20016;-94
2022/06/23 09:37:46;;;;;;;9.02;3.70;;;27.60;95.70;;;;;;6247490;23;20024;-94
2022/06/23 09:40:34;;;;;;;9.20;3.38;;;27.60;94.50;;;;;;6249273;23;20018;-95
2022/06/23 09:43:48;;;;;;;12.55;3.85;;;27.80;95.30;;;;;;6220322;23;20051;-94
2022/06/23 09:50:07;;;;;;;9.02;3.50;;;28.00;94.50;;;;;;6251728;22;20020;-93
2022/06/23 09:53:09;;;;;;;7.50;3.28;;;28.00;94.50;;;;;;6280187;22;20019;-94
2022/06/23 09:56:06;;;;;;;9.68;3.70;;;28.10;92.80;;;;;;6253145;22;20020;-95
2022/06/23 09:58:54;;;;;;;9.43;3.42;;;28.20;94.00;;;;;;6125627;23;20014;-92
2022/06/23 10:01:57;;;;;;;8.40;3.40;;;28.40;93.50;;;;;;6278187;22;20012;-93
2022/06/23 10:08:23;;;;;;;9.35;3.40;;;28.70;92.40;;;;;;6296932;22;20007;-94
2022/06/23 10:11:51;;;;;;;8.50;3.35;;;28.80;92.00;;;;;;6301279;22;20026;-92
2022/06/23 10:18:11;;;;;;;9.00;3.63;;;29.10;91.30;;;;;;6280703;22;20018;-95
2022/06/23 10:20:52;;;;;;;8.02;3.38;;;29.10;91.60;;;;;;6254869;22;20015;-93
2022/06/23 10:23:24;;;;;;;9.05;3.60;;;29.20;91.30;;;;;;6281635;22;20012;-94
2022/06/23 10:26:05;;;;;;;9.38;3.40;;;29.30;90.90;;;;;;6251463;22;20012;-94
2022/06/23 10:28:46;;;;;;;9.07;3.60;;;29.40;90.50;;;;;;6252230;22;20023;-95
2022/06/23 10:31:49;;;;;;;9.40;3.30;;;29.50;90.40;;;;;;6211332;22;20026;-93
2022/06/23 10:35:13;;;;;;;10.73;3.47;;;29.60;90.50;;;;;;6069857;23;20031;-94
2022/06/23 10:38:42;;;;;;;9.30;3.35;;;29.80;91.30;;;;;;6059828;23;20017;-95
2022/06/23 10:42:11;;;;;;;10.48;3.30;;;30.20;90.50;;;;;;6059373;23;20096;-94
2022/06/23 10:45:37;;;;;;;7.97;3.20;;;30.30;88.70;;;;;;6059443;23;20095;-93
2022/06/23 10:48:41;;;;;;;8.23;3.05;;;30.40;89.70;;;;;;6060540;23;20028;-93
2022/06/23 10:51:52;;;;;;;8.45;3.15;;;30.50;87.30;;;;;;6060928;23;20017;-94
2022/06/23 11:05:44;;;;;;;8.45;3.03;;;31.00;84.40;;;;;;6246137;23;20452;-94
2022/06/23 11:08:53;;;;;;;7.80;2.97;;;31.20;83.00;;;;;;6248297;23;20020;-93
2022/06/23 11:11:52;;;;;;;8.75;2.88;;;31.30;80.60;;;;;;6222730;23;20095;-94
2022/06/23 11:15:02;;;;;;;7.75;2.90;;;31.50;81.40;;;;;;6221685;23;20023;-93
2022/06/23 11:21:09;;;;;;;6.57;2.83;;;31.80;80.40;;;;;;6125326;23;20029;-93
2022/06/23 11:24:16;;;;;;;8.10;3.10;;;31.80;80.80;;;;;;6100825;23;20072;-94
2022/06/23 11:27:19;;;;;;;8.55;2.88;;;32.00;79.40;;;;;;6104868;23;20026;-91
2022/06/23 11:30:22;;;;;;;8.63;2.92;;;32.30;80.10;;;;;;6249842;23;20016;-94
2022/06/23 11:33:10;;;;;;;9.13;3.20;;;32.50;76.60;;;;;;6223883;23;20016;-93
2022/06/23 11:36:00;;;;;;;7.20;2.67;;;32.30;76.20;;;;;;6249436;23;20099;-94
2022/06/23 11:38:44;;;;;;;7.70;2.83;;;32.30;78.10;;;;;;6262927;23;20068;-93
2022/06/23 11:41:55;;;;;;;7.20;2.80;;;32.40;76.00;;;;;;6249039;23;20491;-94
2022/06/23 11:45:04;;;;;;;8.23;2.80;;;32.50;74.90;;;;;;6220678;23;20028;-94
2022/06/23 11:48:13;;;;;;;7.43;2.88;;;32.50;74.90;;;;;;6221673;23;20023;-94
2022/06/23 11:51:19;;;;;;;7.40;2.97;;;32.70;73.90;;;;;;6249241;23;20020;-93
2022/06/23 11:54:28;;;;;;;8.20;3.03;;;32.80;75.20;;;;;;6247038;23;20051;-93
2022/06/23 12:04:21;;;;;;;11.10;2.80;;;32.80;72.90;;;;;;6246987;23;20024;-94
2022/06/23 12:07:32;;;;;;;7.15;3.00;;;32.80;70.40;;;;;;6156628;23;20104;-93
2022/06/23 12:10:33;;;;;;;8.85;2.92;;;32.90;71.20;;;;;;6131836;23;20100;-95
2022/06/23 12:13:15;;;;;;;8.60;3.10;;;32.90;71.10;;;;;;6131504;23;20017;-94
2022/06/23 12:15:52;;;;;;;8.15;2.97;;;33.00;71.30;;;;;;6134284;23;20060;-93
2022/06/23 12:18:49;;;;;;;9.10;2.92;;;33.10;70.90;;;;;;6160161;23;20517;-95
2022/06/23 12:21:18;;;;;;;7.28;2.90;;;33.20;71.40;;;;;;6131459;23;20071;-94
2022/06/23 12:24:39;;;;;;;8.10;3.00;;;33.40;70.20;;;;;;6131197;23;20025;-94
2022/06/23 12:27:22;;;;;;;7.82;3.08;;;33.60;70.70;;;;;;6038408;23;20023;-95
2022/06/23 12:30:13;;;;;;;8.45;3.05;;;33.70;69.90;;;;;;6015712;23;20019;-94
2022/06/23 12:33:01;;;;;;;7.85;2.90;;;33.80;70.10;;;;;;6040061;23;20043;-94
2022/06/23 12:35:54;;;;;;;7.35;3.05;;;33.90;70.30;;;;;;6038941;23;20023;-94
2022/06/23 12:39:06;;;;;;;11.25;3.13;;;33.80;68.70;;;;;;6015897;23;20086;-94
2022/06/23 12:42:01;;;;;;;7.90;3.03;;;33.70;69.20;;;;;;6103821;23;20028;-94
2022/06/23 12:44:59;;;;;;;8.23;2.90;;;33.70;68.70;;;;;;6227655;22;20015;-94
2022/06/23 12:48:02;;;;;;;7.80;2.90;;;33.60;67.10;;;;;;6277394;22;20440;-95
2022/06/23 12:51:16;;;;;;;8.57;3.30;;;33.80;68.20;;;;;;6251267;22;20023;-93
2022/06/23 12:54:43;;;;;;;7.45;2.85;;;33.90;67.60;;;;;;6249312;22;20058;-93
2022/06/23 12:57:28;;;;;;;7.90;3.20;;;33.90;65.10;;;;;;6277570;22;20091;-94
2022/06/23 13:00:35;;;;;;;8.55;3.00;;;33.60;65.20;;;;;;6249308;22;20098;-94
2022/06/23 13:03:22;;;;;;;7.13;2.95;;;33.50;65.60;;;;;;6276855;22;20222;-95
2022/06/23 13:06:35;;;;;;;8.55;3.00;;;33.60;64.00;;;;;;6251580;22;20050;-94
2022/06/23 13:09:37;;;;;;;7.53;3.03;;;33.70;64.90;;;;;;6251944;22;20538;-94
2022/06/23 13:12:25;;;;;;;8.07;3.00;;;33.80;65.70;;;;;;6258908;22;20098;-94
2022/06/23 13:15:31;;;;;;;7.20;3.00;;;33.70;65.20;;;;;;6276441;22;20015;-94
2022/06/23 13:18:03;;;;;;;8.85;3.20;;;34.00;66.40;;;;;;6288998;22;20046;-93
2022/06/23 13:21:16;;;;;;;7.95;2.95;;;34.10;65.90;;;;;;6283774;22;20498;-94
2022/06/23 13:24:01;;;;;;;7.45;3.10;;;34.20;65.10;;;;;;6276795;22;20433;-94
2022/06/23 13:26:44;;;;;;;8.40;2.70;;;34.40;64.20;;;;;;6279948;22;20061;-94
2022/06/23 13:29:34;;;;;;;6.75;2.88;;;34.60;64.50;;;;;;6250439;22;20094;-94
2022/06/23 13:32:27;;;;;;;9.85;3.08;;;34.70;64.50;;;;;;6249930;22;20070;-94
2022/06/23 13:35:20;;;;;;;7.13;3.05;;;34.70;64.60;;;;;;6277457;22;20020;-94
2022/06/23 13:38:14;;;;;;;;;;;34.90;63.60;;;;;;6276692;22;20019;-92
2022/06/23 13:41:09;;;;;;;8.40;3.03;;;34.90;65.30;;;;;;6275767;22;19950;-94
2022/06/23 13:44:14;;;;;;;8.25;3.00;;;35.20;64.80;;;;;;6257312;22;20022;-93
2022/06/23 13:47:00;;;;;;;9.30;3.20;;;35.30;63.80;;;;;;6249785;22;20024;-94
2022/06/23 13:50:21;;;;;;;8.70;3.10;;;35.00;63.30;;;;;;6244038;22;20020;-93
2022/06/23 13:53:08;;;;;;;7.07;3.05;;;35.00;63.50;;;;;;6249643;22;20074;-94
2022/06/23 13:56:17;;;;;;;7.72;2.90;;;35.00;63.70;;;;;;6250016;22;20352;-94
2022/06/23 13:59:02;;;;;;;8.23;3.15;;;35.10;62.00;;;;;;6284824;22;20095;-91
2022/06/23 14:02:19;;;;;;;10.65;3.42;;;35.00;62.10;;;;;;6258408;22;20347;-91
2022/06/23 14:07:56;;;;;;;8.90;3.10;;;34.90;62.20;;;;;;6276643;22;20020;-93
2022/06/23 14:17:06;;;;;;;7.82;3.13;;;34.90;64.20;;;;;;6252135;22;20020;-93
2022/06/23 14:20:03;;;;;;;7.15;3.10;;;35.20;62.40;;;;;;6249759;22;20020;-94
2022/06/23 14:26:12;;;;;;;8.15;3.00;;;35.10;61.60;;;;;;6275541;22;20019;-93
2022/06/23 14:28:52;;;;;;;7.47;2.88;;;35.00;62.00;;;;;;6249167;22;20519;-93
2022/06/23 14:31:42;;;;;;;9.27;3.33;;;34.90;61.10;;;;;;6276383;22;20016;-93
2022/06/23 14:34:36;;;;;;;7.57;3.13;;;35.00;62.00;;;;;;6249864;22;20085;-93
2022/06/23 14:37:57;;;;;;;8.20;3.08;;;35.40;62.80;;;;;;6250223;22;20069;-94
2022/06/23 14:41:03;;;;;;;7.60;2.97;;;35.40;61.40;;;;;;6277797;22;20016;-93
2022/06/23 14:44:02;;;;;;;7.72;3.30;;;35.30;61.60;;;;;;6276779;22;20024;-94
2022/06/23 14:47:18;;;;;;;7.38;3.10;;;35.30;61.00;;;;;;6255629;22;20016;-93
2022/06/23 14:50:08;;;;;;;8.07;3.25;;;35.40;62.00;;;;;;6249260;22;20019;-93
2022/06/23 14:53:29;;;;;;;8.43;3.20;;;35.40;61.30;;;;;;6275908;22;20320;-94
2022/06/23 14:56:44;;;;;;;8.68;3.20;;;35.20;60.70;;;;;;6249142;22;20381;-94
2022/06/23 14:59:33;;;;;;;8.23;3.30;;;35.10;60.40;;;;;;6124571;23;20018;-93
2022/06/23 15:02:57;;;;;;;7.95;3.22;;;35.30;60.20;;;;;;6101413;23;20080;-93
2022/06/23 15:06:06;;;;;;;9.10;3.30;;;35.20;61.10;;;;;;6250542;22;20460;-94
2022/06/23 15:09:04;;;;;;;8.60;3.17;;;35.10;61.20;;;;;;6278780;22;20016;-89
2022/06/23 15:11:51;;;;;;;9.20;3.17;;;35.30;61.70;;;;;;6276831;22;20071;-91
2022/06/23 15:18:15;;;;;;;8.20;3.30;;;35.30;60.40;;;;;;6099782;23;20026;-91
2022/06/23 15:21:04;;;;;;;8.05;3.25;;;35.30;61.10;;;;;;6123859;23;20017;-90
2022/06/23 15:23:52;;;;;;;8.75;3.05;;;35.30;61.30;;;;;;6098895;23;20081;-91
2022/06/23 15:27:03;;;;;;;9.50;3.28;;;35.30;61.30;;;;;;6124019;23;20501;-92
2022/06/23 15:30:04;;;;;;;9.35;3.10;;;35.40;61.70;;;;;;5999460;23;20097;-89
2022/06/23 15:33:04;;;;;;;8.80;3.25;;;35.40;60.10;;;;;;6123891;23;20050;-92
2022/06/23 15:36:10;;;;;;;8.60;3.30;;;35.10;60.30;;;;;;6123446;23;20053;-92
2022/06/23 15:39:19;;;;;;;7.95;3.28;;;34.90;60.10;;;;;;6126736;23;20018;-90
2022/06/23 15:45:44;;;;;;;8.73;3.28;;;34.90;60.50;;;;;;6246586;23;20052;-89
2022/06/23 15:48:46;;;;;;;7.45;2.90;;;34.90;59.90;;;;;;6251120;23;20024;-90
2022/06/23 15:51:19;;;;;;;9.00;3.20;;;34.90;60.60;;;;;;6215032;22;20020;-92
2022/06/23 15:53:56;;;;;;;7.93;3.03;;;34.90;60.10;;;;;;6248664;22;20043;-91
2022/06/23 15:56:40;;;;;;;8.93;3.28;;;34.90;59.70;;;;;;6247630;22;20016;-93
2022/06/23 15:59:18;;;;;;;7.05;2.80;;;34.90;60.80;;;;;;6245326;23;20022;-92
2022/06/23 16:02:03;;;;;;;8.18;3.38;;;35.00;61.10;;;;;;6248944;22;20019;-91
2022/06/23 16:04:35;;;;;;;9.15;3.13;;;34.90;61.00;;;;;;6219361;23;20341;-93
2022/06/23 16:07:09;;;;;;;10.02;3.45;;;35.00;60.90;;;;;;6244835;23;20413;-91
2022/06/23 16:09:51;;;;;;;9.40;3.20;;;35.10;61.00;;;;;;6246447;22;20012;-92
2022/06/23 16:12:33;;;;;;;10.65;3.17;;;35.20;60.90;;;;;;6245926;23;20030;-91
2022/06/23 16:15:12;;;;;;;8.90;2.97;;;35.40;60.90;;;;;;6248051;23;20024;-90
2022/06/23 16:17:47;;;;;;;8.25;3.00;;;35.30;60.40;;;;;;6251143;23;20016;-94
2022/06/23 16:20:18;;;;;;;9.48;3.30;;;35.40;61.10;;;;;;6264190;22;20019;-93
2022/06/23 16:22:54;;;;;;;8.88;3.20;;;35.50;60.90;;;;;;6274005;22;20020;-93
2022/06/23 16:25:55;;;;;;;10.50;3.15;;;35.70;60.10;;;;;;6253548;22;20039;-92
2022/06/23 16:28:46;;;;;;;7.72;3.08;;;35.70;60.70;;;;;;6251471;23;20022;-94
2022/06/23 16:31:28;;;;;;;7.82;2.70;;;36.00;60.40;;;;;;6248037;23;20016;-92
2022/06/23 16:34:01;;;;;;;8.55;3.00;;;35.90;59.50;;;;;;6247778;23;20396;-91
2022/06/23 16:36:57;;;;;;;8.93;3.00;;;35.90;59.50;;;;;;6247953;22;20023;-93
2022/06/23 16:39:34;;;;;;;7.18;2.83;;;35.90;59.30;;;;;;6244343;23;20020;-93
2022/06/23 16:42:27;;;;;;;8.45;2.97;;;35.90;58.80;;;;;;6206991;22;20018;-94
2022/06/23 16:45:30;;;;;;;8.05;3.20;;;35.90;58.70;;;;;;6225777;23;20323;-94
2022/06/23 16:48:09;;;;;;;7.65;2.95;;;36.00;58.90;;;;;;6226096;23;20017;-95
2022/06/23 16:51:08;;;;;;;7.80;2.75;;;35.90;58.80;;;;;;6230112;23;20022;-93
2022/06/23 16:54:00;;;;;;;7.97;2.80;;;36.00;59.70;;;;;;6228485;23;20053;-95
2022/06/23 16:56:43;;;;;;;8.43;2.95;;;36.10;59.00;;;;;;6225188;23;20025;-95
2022/06/23 16:59:15;;;;;;;9.57;3.05;;;36.20;58.70;;;;;;6122696;23;20041;-95
2022/06/23 17:01:49;;;;;;;7.47;2.80;;;36.40;58.50;;;;;;6224833;23;20022;-93
2022/06/23 17:04:29;;;;;;;8.25;2.80;;;36.40;58.50;;;;;;6225167;23;20026;-95
2022/06/23 17:07:18;;;;;;;9.25;3.08;;;36.70;58.10;;;;;;6122509;23;20330;-94
2022/06/23 17:10:38;;;;;;;7.70;2.70;;;36.80;58.60;;;;;;6231429;22;20029;-93
2022/06/23 17:14:10;;;;;;;9.23;2.70;;;36.90;58.80;;;;;;6087754;23;20016;-94
2022/06/23 17:16:59;;;;;;;7.18;2.80;;;36.80;58.90;;;;;;6189176;23;20063;-94
2022/06/23 17:19:50;;;;;;;6.97;2.60;;;36.70;58.30;;;;;;6190541;23;20024;-95
2022/06/23 17:25:21;;;;;;;7.60;2.80;;;36.50;57.90;;;;;;6276170;22;20016;-94